Time;durP1;ratioP1;P1;durP2;ratioP2;P2;SDS_P1;SDS_P2;PMS_P1;PMS_P2;Temp;Humidity;BMP_temperature;BMP_pressure;BME280_temperature;BME280_humidity;BME280_pressure;Samples;Min_cycle;Max_cycle;Signal;HPM_P1;HPM_P2
2022/11/20 00:00:02;;;;;;;13.02;6.25;;;-1.10;99.90;;;;;;5090822;28;20040;-81
2022/11/20 00:02:28;;;;;;;11.27;5.40;;;-1.10;99.90;;;;;;5072442;28;20148;-81
2022/11/20 00:04:53;;;;;;;13.93;7.32;;;-1.10;99.90;;;;;;5091275;28;20082;-81
2022/11/20 00:07:19;;;;;;;26.23;7.00;;;-1.10;99.90;;;;;;5093734;28;20119;-81
2022/11/20 00:09:44;;;;;;;14.15;6.07;;;-1.00;99.90;;;;;;5111461;28;20039;-81
2022/11/20 00:12:10;;;;;;;13.52;6.95;;;-1.00;99.90;;;;;;5111745;28;20419;-81
2022/11/20 00:14:35;;;;;;;13.80;7.57;;;-1.00;99.90;;;;;;5076396;28;20486;-81
2022/11/20 00:17:01;;;;;;;13.75;6.45;;;-0.90;99.90;;;;;;5074257;28;20128;-81
2022/11/20 00:19:27;;;;;;;11.90;6.10;;;-0.90;99.90;;;;;;5075478;28;20055;-81
2022/11/20 00:21:53;;;;;;;13.45;6.95;;;-0.90;99.90;;;;;;5089376;28;20122;-81
2022/11/20 00:24:19;;;;;;;13.80;7.13;;;-0.90;99.90;;;;;;5096366;27;20036;-81
2022/11/20 00:26:44;;;;;;;14.25;6.80;;;-0.80;99.90;;;;;;5089080;28;20093;-81
2022/11/20 00:29:10;;;;;;;15.50;7.95;;;-0.80;99.90;;;;;;5090587;28;20032;-81
2022/11/20 00:31:36;;;;;;;18.90;8.35;;;-0.80;99.90;;;;;;5074187;28;20031;-81
2022/11/20 00:34:01;;;;;;;12.68;5.80;;;-0.70;99.90;;;;;;5090162;28;20412;-81
2022/11/20 00:36:28;;;;;;;11.80;5.05;;;-0.80;99.90;;;;;;5090896;28;20455;-81
2022/11/20 00:38:56;;;;;;;12.45;5.45;;;-0.80;99.90;;;;;;5095332;28;20150;-81
2022/11/20 00:41:23;;;;;;;11.20;4.72;;;-0.80;99.90;;;;;;5075780;28;20040;-81
2022/11/20 00:43:48;;;;;;;14.35;6.10;;;-0.80;99.90;;;;;;5073215;28;20062;-81
2022/11/20 00:46:17;;;;;;;14.23;6.25;;;-0.80;99.90;;;;;;5072075;28;20036;-81
2022/11/20 00:48:43;;;;;;;15.68;7.38;;;-0.80;99.90;;;;;;5090439;28;20123;-81
2022/11/20 00:51:11;;;;;;;14.30;6.03;;;-0.80;99.90;;;;;;5089894;28;20063;-81
2022/11/20 00:53:37;;;;;;;12.75;5.50;;;-0.80;99.90;;;;;;5092437;28;20028;-81
2022/11/20 00:56:05;;;;;;;12.45;5.35;;;-0.70;99.90;;;;;;5074224;28;20048;-81
2022/11/20 00:58:34;;;;;;;13.73;6.80;;;-0.70;99.90;;;;;;5091953;28;20047;-81
2022/11/20 01:01:05;;;;;;;13.95;6.88;;;-0.70;99.90;;;;;;5093448;28;20416;-81
2022/11/20 01:03:36;;;;;;;14.18;6.82;;;-0.70;99.90;;;;;;5087957;28;20119;-81
2022/11/20 01:06:03;;;;;;;13.18;6.60;;;-0.60;99.90;;;;;;5107220;28;20437;-81
2022/11/20 01:08:31;;;;;;;13.55;7.15;;;-0.60;99.90;;;;;;5111053;28;20039;-81
2022/11/20 01:11:09;;;;;;;14.52;6.90;;;-0.60;99.90;;;;;;5101411;28;20102;-81
2022/11/20 01:13:39;;;;;;;17.00;6.25;;;-0.50;99.90;;;;;;5110696;28;20040;-81
2022/11/20 01:16:11;;;;;;;13.88;6.03;;;-0.50;99.90;;;;;;5110846;28;20082;-81
2022/11/20 01:18:39;;;;;;;15.70;6.13;;;-0.50;99.90;;;;;;5106810;28;20039;-81
2022/11/20 01:21:11;;;;;;;15.02;7.30;;;-0.50;99.90;;;;;;5110464;28;20046;-81
2022/11/20 01:23:39;;;;;;;15.38;6.85;;;-0.40;99.90;;;;;;5104666;28;20081;-81
2022/11/20 01:26:06;;;;;;;13.77;6.88;;;-0.40;99.90;;;;;;5089744;28;20048;-81
2022/11/20 01:28:33;;;;;;;14.55;6.53;;;-0.30;99.90;;;;;;5106987;28;20052;-81
2022/11/20 01:30:59;;;;;;;16.25;7.60;;;-0.30;99.90;;;;;;5095186;28;20111;-81
2022/11/20 01:33:25;;;;;;;16.95;7.97;;;-0.30;99.90;;;;;;5073098;28;20047;-81
2022/11/20 01:35:51;;;;;;;14.02;7.35;;;-0.30;99.90;;;;;;5081844;28;20068;-81
2022/11/20 01:38:17;;;;;;;17.52;8.00;;;-0.30;99.90;;;;;;5095122;28;20123;-81
2022/11/20 01:40:43;;;;;;;16.05;7.75;;;-0.20;99.90;;;;;;5114545;28;20450;-81
2022/11/20 01:43:21;;;;;;;13.95;6.75;;;-0.20;99.90;;;;;;5088119;28;20104;-81
2022/11/20 01:46:03;;;;;;;15.57;7.32;;;-0.20;99.90;;;;;;5114255;28;20645;-81
2022/11/20 01:48:35;;;;;;;14.05;8.48;;;-0.20;99.90;;;;;;5113021;28;20063;-81
2022/11/20 01:51:02;;;;;;;13.57;6.63;;;-0.20;99.90;;;;;;5097323;28;20039;-81
2022/11/20 01:53:33;;;;;;;15.25;8.35;;;-0.20;99.90;;;;;;5113987;28;20046;-81
2022/11/20 01:56:02;;;;;;;15.15;7.07;;;-0.20;99.90;;;;;;5112362;28;20404;-81
2022/11/20 01:58:33;;;;;;;13.25;7.25;;;-0.20;99.90;;;;;;5114381;28;20074;-81
2022/11/20 02:00:59;;;;;;;14.95;7.32;;;-0.20;99.90;;;;;;5114197;28;20561;-81
2022/11/20 02:03:25;;;;;;;13.50;7.22;;;-0.20;99.90;;;;;;5112017;28;20071;-81
2022/11/20 02:06:13;;;;;;;15.70;7.68;;;-0.20;99.90;;;;;;5097149;28;20062;-81
2022/11/20 02:08:38;;;;;;;13.45;7.32;;;-0.20;99.90;;;;;;5109558;28;20083;-81
2022/11/20 02:11:04;;;;;;;12.68;6.25;;;-0.20;99.90;;;;;;5114139;28;20114;-81
2022/11/20 02:13:45;;;;;;;15.73;7.53;;;-0.20;99.90;;;;;;5113039;28;20036;-81
2022/11/20 02:16:18;;;;;;;15.88;7.47;;;-0.20;99.90;;;;;;5112167;28;20120;-81
2022/11/20 02:18:44;;;;;;;;;;;-0.20;99.90;;;;;;5097385;28;20044;-81
2022/11/20 02:21:36;;;;;;;14.02;7.28;;;-0.20;99.90;;;;;;5106572;28;20007;-81
2022/11/20 02:24:22;;;;;;;14.93;5.95;;;-0.20;99.90;;;;;;5113541;28;20043;-81
2022/11/20 02:27:02;;;;;;;14.48;6.80;;;-0.20;99.90;;;;;;5094946;28;20048;-81
2022/11/20 02:29:52;;;;;;;12.52;6.60;;;-0.20;99.90;;;;;;5113728;28;20036;-81
2022/11/20 02:32:19;;;;;;;14.63;6.32;;;-0.20;99.90;;;;;;5110321;28;20496;-81
2022/11/20 02:34:44;;;;;;;17.90;7.32;;;-0.20;99.90;;;;;;5113984;28;20043;-81
2022/11/20 02:37:10;;;;;;;14.15;6.80;;;-0.20;99.90;;;;;;5097317;28;20512;-82
2022/11/20 02:39:35;;;;;;;12.98;7.43;;;-0.10;99.90;;;;;;5093178;28;20647;-82
2022/11/20 02:42:02;;;;;;;15.48;7.53;;;-0.10;99.90;;;;;;5092322;28;20052;-82
2022/11/20 02:44:27;;;;;;;16.30;7.95;;;-0.10;99.90;;;;;;5087943;28;20400;-82
2022/11/20 02:46:53;;;;;;;15.65;7.20;;;-0.10;99.90;;;;;;5113672;28;20169;-82
2022/11/20 02:49:18;;;;;;;16.25;8.07;;;-0.10;99.90;;;;;;5108449;28;20677;-82
2022/11/20 02:51:44;;;;;;;14.35;7.28;;;-0.10;99.90;;;;;;5096397;28;20035;-82
2022/11/20 02:54:09;;;;;;;14.15;6.90;;;-0.10;99.90;;;;;;5089635;28;20493;-82
2022/11/20 02:56:38;;;;;;;17.58;7.38;;;-0.10;99.90;;;;;;5110876;28;20122;-82
2022/11/20 02:59:04;;;;;;;14.93;7.47;;;0.00;99.90;;;;;;5113470;28;20117;-82
2022/11/20 03:01:29;;;;;;;15.90;8.20;;;0.00;99.90;;;;;;5094128;28;20183;-82
2022/11/20 03:03:55;;;;;;;15.70;7.70;;;0.00;99.90;;;;;;5112462;28;20396;-82
2022/11/20 03:06:21;;;;;;;12.65;6.78;;;0.00;99.90;;;;;;5112500;28;20085;-82
2022/11/20 03:08:47;;;;;;;13.95;7.03;;;0.10;99.90;;;;;;5111223;28;20032;-82
2022/11/20 03:11:12;;;;;;;17.13;7.68;;;0.10;99.90;;;;;;5113015;28;20435;-82
2022/11/20 03:13:38;;;;;;;15.45;6.50;;;0.10;99.90;;;;;;5111186;28;20485;-82
2022/11/20 03:16:16;;;;;;;17.10;8.45;;;0.10;99.90;;;;;;5095869;28;20043;-82
2022/11/20 03:18:42;;;;;;;14.48;6.95;;;0.10;99.90;;;;;;5110061;28;20036;-82
2022/11/20 03:21:09;;;;;;;14.43;7.07;;;0.20;99.90;;;;;;5095624;28;20095;-82
2022/11/20 03:23:35;;;;;;;15.48;7.38;;;0.20;99.90;;;;;;5111740;28;20074;-82
2022/11/20 03:26:28;;;;;;;14.30;7.10;;;0.20;99.90;;;;;;5092713;28;20040;-82
2022/11/20 03:28:58;;;;;;;14.45;7.68;;;0.20;99.90;;;;;;5088770;28;20092;-82
2022/11/20 03:31:27;;;;;;;16.33;7.25;;;0.20;99.90;;;;;;5107116;28;20036;-82
2022/11/20 03:33:53;;;;;;;15.48;7.40;;;0.20;99.90;;;;;;5095048;28;20496;-82
2022/11/20 03:36:19;;;;;;;16.75;7.30;;;0.20;99.90;;;;;;5089096;28;20042;-82
2022/11/20 03:38:46;;;;;;;13.85;7.05;;;0.30;99.90;;;;;;5095401;28;20044;-82
2022/11/20 03:41:18;;;;;;;14.60;7.47;;;0.30;99.90;;;;;;5091011;28;20337;-82
2022/11/20 03:43:49;;;;;;;12.38;6.28;;;0.30;99.90;;;;;;5093998;28;20039;-82
2022/11/20 03:46:14;;;;;;;15.75;7.20;;;0.30;99.90;;;;;;5107426;28;20393;-82
2022/11/20 03:48:40;;;;;;;13.40;7.15;;;0.30;99.90;;;;;;5107476;28;20034;-83
2022/11/20 03:51:13;;;;;;;14.10;8.00;;;0.30;99.90;;;;;;5105885;28;20051;-82
2022/11/20 03:53:40;;;;;;;14.57;6.53;;;0.30;99.90;;;;;;5101135;28;20031;-82
2022/11/20 03:56:06;;;;;;;14.80;7.57;;;0.30;99.90;;;;;;5107007;28;20051;-82
2022/11/20 03:58:34;;;;;;;12.15;6.80;;;0.40;99.90;;;;;;5103520;28;20046;-82
2022/11/20 04:01:08;;;;;;;14.50;7.38;;;0.40;99.90;;;;;;5111479;28;20050;-82
2022/11/20 04:03:35;;;;;;;16.00;7.82;;;0.40;99.90;;;;;;5111013;28;20139;-82
2022/11/20 04:06:03;;;;;;;13.23;7.50;;;0.40;99.90;;;;;;5105823;28;20032;-82
2022/11/20 04:08:29;;;;;;;16.58;7.78;;;0.40;99.90;;;;;;5111968;28;20043;-83
2022/11/20 04:10:55;;;;;;;16.38;8.27;;;0.40;99.90;;;;;;5102255;28;20381;-82
2022/11/20 04:13:20;;;;;;;16.00;7.80;;;0.40;99.90;;;;;;5111675;28;20465;-82
2022/11/20 04:15:46;;;;;;;15.73;8.93;;;0.40;99.90;;;;;;5110977;28;20051;-82
2022/11/20 04:18:12;;;;;;;14.10;7.20;;;0.40;99.90;;;;;;5104170;28;20047;-82
2022/11/20 04:20:37;;;;;;;14.50;8.00;;;0.40;99.90;;;;;;5111710;28;20035;-82
2022/11/20 04:23:03;;;;;;;19.02;7.20;;;0.40;99.90;;;;;;5092269;28;20043;-82
2022/11/20 04:25:28;;;;;;;16.38;7.88;;;0.40;99.90;;;;;;5090992;28;20040;-83
2022/11/20 04:27:54;;;;;;;15.45;7.65;;;0.40;99.90;;;;;;5093671;28;20442;-82
2022/11/20 04:30:20;;;;;;;13.48;7.07;;;0.50;99.90;;;;;;5088245;28;20690;-82
2022/11/20 04:32:45;;;;;;;17.38;8.52;;;0.50;99.90;;;;;;5111105;28;20035;-82
2022/11/20 04:35:11;;;;;;;15.90;7.80;;;0.50;99.90;;;;;;5092255;28;20039;-82
2022/11/20 04:37:36;;;;;;;14.55;7.35;;;0.50;99.90;;;;;;5110764;28;20091;-82
2022/11/20 04:40:02;;;;;;;15.40;8.00;;;0.50;99.90;;;;;;5111438;28;20051;-82
2022/11/20 04:42:28;;;;;;;15.23;7.10;;;0.50;99.90;;;;;;5091627;28;20129;-83
2022/11/20 04:44:53;;;;;;;14.80;7.35;;;0.50;99.90;;;;;;5093906;28;20036;-83
2022/11/20 04:47:19;;;;;;;14.05;7.60;;;0.60;99.90;;;;;;5110917;28;20031;-83
2022/11/20 04:49:44;;;;;;;15.35;7.80;;;0.50;99.90;;;;;;5108514;28;20036;-83
2022/11/20 04:52:10;;;;;;;16.75;8.30;;;0.60;99.90;;;;;;5093538;28;20038;-83
2022/11/20 04:54:35;;;;;;;15.30;7.72;;;0.60;99.90;;;;;;5111147;28;20122;-82
2022/11/20 04:57:01;;;;;;;15.60;7.43;;;0.60;99.90;;;;;;5101052;28;20142;-83
2022/11/20 04:59:26;;;;;;;15.65;7.53;;;0.60;99.90;;;;;;5093565;28;20071;-83
2022/11/20 05:01:52;;;;;;;15.13;7.68;;;0.60;99.90;;;;;;5103923;28;20070;-82
2022/11/20 05:04:17;;;;;;;14.73;7.35;;;0.60;99.90;;;;;;5110462;28;20039;-83
2022/11/20 05:06:45;;;;;;;13.27;6.97;;;0.60;99.90;;;;;;5088345;28;20028;-83
2022/11/20 05:09:11;;;;;;;14.07;7.07;;;0.50;99.90;;;;;;5107982;28;20047;-83
2022/11/20 05:11:36;;;;;;;13.02;7.78;;;0.50;99.90;;;;;;5110763;28;20123;-83
2022/11/20 05:14:02;;;;;;;16.63;7.65;;;0.50;99.90;;;;;;5106402;28;20111;-83
2022/11/20 05:16:27;;;;;;;15.93;7.47;;;0.50;99.90;;;;;;5110540;28;20476;-83
2022/11/20 05:18:54;;;;;;;13.15;6.95;;;0.40;99.90;;;;;;5088396;28;20472;-83
2022/11/20 05:21:19;;;;;;;16.98;7.85;;;0.40;99.90;;;;;;5093644;28;20396;-82
2022/11/20 05:23:46;;;;;;;16.17;7.82;;;0.40;99.90;;;;;;5093322;28;20035;-83
2022/11/20 05:26:18;;;;;;;16.45;8.32;;;0.40;99.90;;;;;;5085397;28;20040;-82
2022/11/20 05:28:43;;;;;;;15.35;7.97;;;0.40;99.90;;;;;;5110646;28;20575;-82
2022/11/20 05:31:14;;;;;;;13.90;7.45;;;0.40;99.90;;;;;;5093103;28;20043;-82
2022/11/20 05:33:41;;;;;;;15.88;8.57;;;0.40;99.90;;;;;;5105991;28;20039;-82
2022/11/20 05:36:08;;;;;;;17.75;9.18;;;0.50;99.90;;;;;;5109706;28;20404;-82
2022/11/20 05:38:33;;;;;;;14.30;6.88;;;0.50;99.90;;;;;;5105625;28;20040;-82
2022/11/20 05:41:06;;;;;;;15.73;7.78;;;0.50;99.90;;;;;;5092889;28;20047;-82
2022/11/20 05:43:33;;;;;;;17.10;7.13;;;0.50;99.90;;;;;;5086978;28;20075;-82
2022/11/20 05:45:59;;;;;;;15.43;8.23;;;0.50;99.90;;;;;;5110280;28;20040;-82
2022/11/20 05:48:25;;;;;;;17.42;8.90;;;0.50;99.90;;;;;;5084369;28;20039;-82
2022/11/20 05:50:50;;;;;;;16.70;9.35;;;0.50;99.90;;;;;;5093599;28;20039;-82
2022/11/20 05:53:16;;;;;;;15.65;7.35;;;0.50;99.90;;;;;;5104194;28;20507;-83
2022/11/20 05:55:41;;;;;;;16.40;7.57;;;0.50;99.90;;;;;;5110277;28;20413;-83
2022/11/20 05:58:07;;;;;;;16.88;9.07;;;0.50;99.90;;;;;;5109628;28;20035;-83
2022/11/20 06:00:32;;;;;;;17.70;9.07;;;0.50;99.90;;;;;;5107023;28;20035;-83
2022/11/20 06:02:58;;;;;;;18.67;9.05;;;0.50;99.90;;;;;;5109720;28;20062;-83
2022/11/20 06:05:23;;;;;;;15.82;7.95;;;0.40;99.90;;;;;;5100777;28;20040;-83
2022/11/20 06:07:49;;;;;;;14.88;7.72;;;0.40;99.90;;;;;;5072877;28;20584;-83
2022/11/20 06:10:14;;;;;;;16.50;7.93;;;0.50;99.90;;;;;;5095996;28;20538;-83
2022/11/20 06:12:40;;;;;;;17.23;8.65;;;0.50;99.90;;;;;;5109727;28;20497;-82
2022/11/20 06:15:06;;;;;;;16.48;8.50;;;0.50;99.90;;;;;;5107436;28;20036;-83
2022/11/20 06:17:32;;;;;;;14.82;7.80;;;0.60;99.90;;;;;;5102465;28;20050;-83
2022/11/20 06:19:57;;;;;;;14.23;6.90;;;0.60;99.90;;;;;;5111392;28;20046;-83
2022/11/20 06:22:23;;;;;;;15.52;8.77;;;0.60;99.90;;;;;;5084578;28;20485;-82
2022/11/20 06:24:48;;;;;;;16.67;8.40;;;0.60;99.90;;;;;;5112731;28;20458;-83
2022/11/20 06:27:14;;;;;;;16.88;8.00;;;0.60;99.90;;;;;;5106975;28;20071;-83
2022/11/20 06:29:39;;;;;;;17.10;7.93;;;0.60;99.90;;;;;;5113263;28;20040;-83
2022/11/20 06:32:05;;;;;;;16.20;8.65;;;0.60;99.90;;;;;;5113346;28;20028;-83
2022/11/20 06:34:30;;;;;;;14.48;8.05;;;0.60;99.90;;;;;;5106573;28;20069;-83
2022/11/20 06:36:56;;;;;;;14.68;7.47;;;0.60;99.90;;;;;;5113370;28;20401;-83
2022/11/20 06:39:21;;;;;;;16.15;8.02;;;0.60;99.90;;;;;;5112533;28;20516;-83
2022/11/20 06:41:47;;;;;;;19.90;9.10;;;0.60;99.90;;;;;;5109148;28;20046;-83
2022/11/20 06:44:12;;;;;;;16.48;8.27;;;0.60;99.90;;;;;;5096152;28;20530;-83
2022/11/20 06:46:38;;;;;;;15.73;8.20;;;0.60;99.90;;;;;;5112352;28;20511;-83
2022/11/20 06:49:03;;;;;;;17.23;7.78;;;0.60;99.90;;;;;;5111114;28;20035;-83
2022/11/20 06:51:29;;;;;;;19.42;9.48;;;0.60;99.90;;;;;;5112704;28;20115;-83
2022/11/20 06:53:55;;;;;;;15.25;8.25;;;0.60;99.90;;;;;;5104774;28;20443;-83
2022/11/20 06:56:20;;;;;;;15.93;7.78;;;0.60;99.90;;;;;;5112801;28;20039;-83
2022/11/20 06:58:46;;;;;;;15.73;7.63;;;0.60;99.90;;;;;;5106276;28;20043;-83
2022/11/20 07:01:14;;;;;;;13.27;7.55;;;0.60;99.90;;;;;;5095513;28;20441;-83
2022/11/20 07:03:41;;;;;;;14.07;7.22;;;0.60;99.90;;;;;;5111724;28;20036;-83
2022/11/20 07:06:07;;;;;;;15.52;8.27;;;0.60;99.90;;;;;;5088543;28;20046;-83
2022/11/20 07:08:34;;;;;;;15.45;7.60;;;0.60;99.90;;;;;;5112307;28;20035;-83
2022/11/20 07:11:01;;;;;;;14.68;7.68;;;0.50;99.90;;;;;;5109418;28;20071;-83
2022/11/20 07:13:28;;;;;;;14.68;7.85;;;0.50;99.90;;;;;;5095210;28;20031;-83
2022/11/20 07:15:54;;;;;;;16.48;7.82;;;0.50;99.90;;;;;;5112024;28;20092;-82
2022/11/20 07:18:20;;;;;;;16.65;8.05;;;0.50;99.90;;;;;;5111471;28;20093;-83
2022/11/20 07:20:45;;;;;;;18.67;8.25;;;0.50;99.90;;;;;;5095595;28;20480;-82
2022/11/20 07:23:11;;;;;;;17.30;7.97;;;0.50;99.90;;;;;;5086998;28;20040;-83
2022/11/20 07:25:36;;;;;;;17.98;8.48;;;0.60;99.90;;;;;;5109070;28;20151;-83
2022/11/20 07:28:02;;;;;;;14.80;8.57;;;0.50;99.90;;;;;;5075572;28;20078;-83
2022/11/20 07:30:28;;;;;;;15.55;8.13;;;0.60;99.90;;;;;;5111041;28;20035;-83
2022/11/20 07:32:55;;;;;;;15.43;7.93;;;0.50;99.90;;;;;;5110826;28;20074;-83
2022/11/20 07:35:22;;;;;;;16.50;8.43;;;0.50;99.90;;;;;;5085856;28;20092;-82
2022/11/20 07:37:48;;;;;;;16.55;8.30;;;0.60;99.90;;;;;;5094631;28;20035;-83
2022/11/20 07:40:17;;;;;;;17.02;8.43;;;0.60;99.90;;;;;;5094163;28;20072;-83
2022/11/20 07:42:50;;;;;;;16.52;7.85;;;0.60;99.90;;;;;;5095731;28;20040;-83
2022/11/20 07:45:17;;;;;;;17.17;8.50;;;0.60;99.90;;;;;;5091115;28;20100;-83
2022/11/20 07:47:43;;;;;;;15.38;8.07;;;0.50;99.90;;;;;;5092587;28;20032;-83
2022/11/20 07:50:08;;;;;;;18.95;8.63;;;0.50;99.90;;;;;;5110817;28;20050;-83
2022/11/20 07:52:34;;;;;;;17.05;8.07;;;0.50;99.90;;;;;;5110535;28;20036;-83
2022/11/20 07:55:00;;;;;;;14.57;7.70;;;0.50;99.90;;;;;;5091800;28;20427;-83
2022/11/20 07:57:25;;;;;;;16.25;8.15;;;0.40;99.90;;;;;;5094688;28;20100;-83
2022/11/20 07:59:51;;;;;;;14.75;7.47;;;0.40;99.90;;;;;;5110359;28;20520;-83
2022/11/20 08:02:16;;;;;;;14.25;7.53;;;0.50;99.90;;;;;;5111066;28;20051;-83
2022/11/20 08:04:42;;;;;;;14.82;8.77;;;0.50;99.90;;;;;;5110877;28;20450;-83
2022/11/20 08:07:07;;;;;;;14.52;7.95;;;0.60;99.90;;;;;;5107319;28;20132;-83
2022/11/20 08:09:33;;;;;;;14.63;7.75;;;0.60;99.90;;;;;;5111336;28;20122;-83
2022/11/20 08:14:43;;;;;;;16.00;8.50;;;0.70;99.90;;;;;;5101882;28;20047;-83
2022/11/20 08:17:08;;;;;;;15.43;7.45;;;0.70;99.90;;;;;;5092712;28;20043;-83
2022/11/20 08:19:34;;;;;;;14.90;8.50;;;0.70;99.90;;;;;;5088210;28;20045;-83
2022/11/20 08:21:59;;;;;;;14.43;7.80;;;0.70;99.90;;;;;;5093701;28;20040;-83
2022/11/20 08:24:26;;;;;;;15.32;8.23;;;0.70;99.90;;;;;;5101203;28;20055;-83
2022/11/20 08:26:52;;;;;;;16.17;8.30;;;0.70;99.90;;;;;;5093945;28;20097;-83
2022/11/20 08:29:18;;;;;;;16.17;8.27;;;0.70;99.90;;;;;;5110918;28;20445;-83
2022/11/20 08:31:43;;;;;;;16.02;8.13;;;0.70;99.90;;;;;;5088592;28;20066;-81
2022/11/20 08:34:09;;;;;;;14.00;7.25;;;0.70;99.90;;;;;;5109680;28;20047;-81
2022/11/20 08:36:34;;;;;;;15.48;8.32;;;0.80;99.90;;;;;;5107116;28;20032;-81
2022/11/20 08:39:00;;;;;;;14.57;6.40;;;0.80;99.90;;;;;;5090925;28;20040;-80
2022/11/20 08:41:30;;;;;;;18.58;8.70;;;0.70;99.90;;;;;;5070192;28;20047;-81
2022/11/20 08:43:59;;;;;;;18.40;8.80;;;0.60;99.90;;;;;;5095203;28;20035;-81
2022/11/20 08:46:26;;;;;;;16.58;8.50;;;0.60;99.90;;;;;;5093418;28;20065;-81
2022/11/20 08:48:52;;;;;;;15.30;7.97;;;0.60;99.90;;;;;;5089431;28;20040;-81
2022/11/20 08:51:19;;;;;;;15.10;7.78;;;0.50;99.90;;;;;;5110658;28;20035;-81
2022/11/20 08:53:45;;;;;;;13.52;7.18;;;0.50;99.90;;;;;;5093375;28;20040;-81
2022/11/20 08:56:11;;;;;;;16.05;8.30;;;0.60;99.90;;;;;;5102200;28;20040;-81
2022/11/20 08:58:37;;;;;;;17.52;9.50;;;0.60;99.90;;;;;;5110707;28;20139;-81
2022/11/20 09:01:03;;;;;;;17.02;9.65;;;0.70;99.90;;;;;;5109537;28;20496;-80
2022/11/20 09:03:29;;;;;;;16.55;8.57;;;0.80;99.90;;;;;;5104601;28;20042;-81
2022/11/20 09:06:02;;;;;;;15.63;8.55;;;0.80;99.90;;;;;;5110301;28;20456;-81
2022/11/20 09:08:28;;;;;;;17.23;8.05;;;0.90;99.90;;;;;;5107762;28;20027;-81
2022/11/20 09:10:55;;;;;;;15.30;8.23;;;0.90;99.90;;;;;;5110192;28;20036;-81
2022/11/20 09:13:22;;;;;;;16.75;8.43;;;0.90;99.90;;;;;;5094013;28;20065;-81
2022/11/20 09:16:00;;;;;;;17.40;8.25;;;1.00;99.90;;;;;;5094065;28;20374;-81
2022/11/20 09:18:27;;;;;;;16.55;8.40;;;1.10;99.90;;;;;;5110135;28;20040;-81
2022/11/20 09:20:57;;;;;;;19.30;8.45;;;1.10;99.90;;;;;;5097498;28;20134;-81
2022/11/20 09:23:23;;;;;;;17.58;8.52;;;1.20;99.90;;;;;;5073045;28;20050;-81
2022/11/20 09:25:48;;;;;;;18.88;9.45;;;1.20;99.90;;;;;;5082916;28;20043;-81
2022/11/20 09:28:14;;;;;;;16.92;8.85;;;1.30;99.90;;;;;;5101307;28;20036;-81
2022/11/20 09:30:39;;;;;;;15.30;8.25;;;1.30;99.90;;;;;;5092037;28;20046;-80
2022/11/20 09:33:06;;;;;;;16.35;8.02;;;1.40;99.90;;;;;;5105351;28;20046;-81
2022/11/20 09:35:32;;;;;;;16.58;8.13;;;1.50;99.90;;;;;;5093553;28;20086;-81
2022/11/20 09:37:57;;;;;;;15.35;8.27;;;1.60;99.90;;;;;;5096379;28;20564;-81
2022/11/20 09:40:28;;;;;;;18.17;8.25;;;1.60;99.90;;;;;;5072676;28;20127;-81
2022/11/20 09:43:11;;;;;;;19.98;9.55;;;1.80;99.90;;;;;;5097968;28;20127;-81
2022/11/20 09:46:01;;;;;;;17.73;8.73;;;1.80;99.90;;;;;;5093418;28;20046;-81
2022/11/20 09:48:55;;;;;;;17.65;8.70;;;1.90;99.90;;;;;;5104845;28;20531;-81
2022/11/20 09:51:53;;;;;;;17.95;8.90;;;2.00;99.90;;;;;;5093338;28;20161;-81
2022/11/20 09:54:29;;;;;;;17.10;9.63;;;2.10;99.90;;;;;;5086731;28;20031;-81
2022/11/20 09:57:05;;;;;;;17.48;8.65;;;2.20;99.90;;;;;;5097058;28;20046;-81
2022/11/20 09:59:49;;;;;;;14.40;7.45;;;2.30;99.90;;;;;;5113269;28;20114;-81
2022/11/20 10:02:30;;;;;;;16.77;9.02;;;2.40;99.90;;;;;;5093233;28;20066;-81
2022/11/20 10:04:59;;;;;;;16.85;9.45;;;2.50;99.90;;;;;;5114132;28;20093;-81
2022/11/20 10:07:36;;;;;;;16.75;9.57;;;2.50;99.90;;;;;;5109791;28;20484;-81
2022/11/20 10:10:02;;;;;;;20.02;10.65;;;2.60;99.90;;;;;;5114077;28;20043;-81
2022/11/20 10:13:05;;;;;;;18.58;9.63;;;2.70;99.90;;;;;;5113247;28;20055;-81
2022/11/20 10:15:55;;;;;;;17.33;9.80;;;2.80;99.90;;;;;;5056676;28;20051;-81
2022/11/20 10:18:34;;;;;;;14.98;7.85;;;2.90;99.90;;;;;;5107176;28;20044;-81
2022/11/20 10:21:33;;;;;;;15.40;8.27;;;3.10;99.90;;;;;;5105139;28;20114;-81
2022/11/20 10:24:18;;;;;;;16.38;8.88;;;3.30;99.90;;;;;;5096286;28;20043;-81
2022/11/20 10:27:22;;;;;;;14.40;8.23;;;3.60;99.90;;;;;;5086543;28;20055;-81
2022/11/20 10:30:01;;;;;;;15.48;6.95;;;3.70;99.90;;;;;;5113440;28;20059;-81
2022/11/20 10:32:34;;;;;;;15.02;9.10;;;3.70;99.90;;;;;;5088894;28;20127;-83
2022/11/20 10:35:13;;;;;;;14.73;7.70;;;3.80;99.90;;;;;;5092464;28;20779;-83
2022/11/20 10:37:43;;;;;;;16.08;7.75;;;4.00;99.90;;;;;;5076145;28;20063;-83
2022/11/20 10:40:28;;;;;;;14.63;7.72;;;4.00;99.90;;;;;;5109495;28;20039;-81
2022/11/20 10:42:59;;;;;;;14.15;7.28;;;4.10;99.90;;;;;;5112731;28;20039;-81
2022/11/20 10:45:24;;;;;;;12.73;6.32;;;4.10;99.90;;;;;;5105749;28;20040;-81
2022/11/20 10:47:52;;;;;;;13.55;6.70;;;4.10;99.90;;;;;;5095509;28;20046;-82
2022/11/20 10:50:21;;;;;;;13.57;6.28;;;4.10;99.70;;;;;;5113084;28;20039;-82
2022/11/20 10:53:35;;;;;;;12.93;6.13;;;4.10;98.70;;;;;;5089688;28;20888;-82
2022/11/20 10:56:09;;;;;;;11.90;6.55;;;4.20;96.20;;;;;;4998385;28;20502;-81
2022/11/20 10:59:19;;;;;;;13.40;6.13;;;4.20;95.00;;;;;;5010816;28;20152;-82
2022/11/20 11:01:44;;;;;;;11.18;5.90;;;4.20;91.50;;;;;;5030705;28;20084;-81
2022/11/20 11:04:33;;;;;;;11.40;6.28;;;4.20;94.10;;;;;;5010971;28;20076;-82
2022/11/20 11:07:16;;;;;;;11.52;6.68;;;4.20;92.90;;;;;;5009905;28;20046;-81
2022/11/20 11:09:49;;;;;;;12.30;6.05;;;4.30;91.90;;;;;;4994703;28;20503;-81
2022/11/20 11:12:15;;;;;;;12.30;5.47;;;4.20;93.20;;;;;;5006513;28;20574;-82
2022/11/20 11:14:49;;;;;;;12.73;6.30;;;4.40;92.80;;;;;;5014168;28;20041;-82
2022/11/20 11:17:34;;;;;;;12.77;5.68;;;4.50;93.80;;;;;;4994686;28;20141;-82
2022/11/20 11:20:06;;;;;;;12.55;6.18;;;4.60;91.50;;;;;;5014179;28;20063;-81
2022/11/20 11:22:42;;;;;;;11.75;5.75;;;4.80;92.10;;;;;;5013098;28;20048;-81
2022/11/20 11:25:21;;;;;;;11.35;5.22;;;4.90;92.40;;;;;;5011787;28;20067;-81
2022/11/20 11:27:48;;;;;;;12.52;5.63;;;5.00;91.30;;;;;;5013201;28;20052;-82
2022/11/20 11:30:15;;;;;;;12.07;6.55;;;5.20;91.50;;;;;;5008306;28;20065;-82
2022/11/20 11:32:41;;;;;;;12.07;7.03;;;5.30;90.80;;;;;;5111788;28;20070;-82
2022/11/20 11:35:23;;;;;;;12.50;6.55;;;5.40;90.00;;;;;;5105236;28;20032;-82
2022/11/20 11:37:50;;;;;;;12.07;6.47;;;5.40;88.90;;;;;;5093120;28;20040;-82
2022/11/20 11:40:18;;;;;;;12.98;6.15;;;5.40;89.30;;;;;;5110802;28;20051;-82
2022/11/20 11:42:51;;;;;;;12.07;6.32;;;5.50;88.40;;;;;;5092472;28;20040;-81
2022/11/20 11:45:17;;;;;;;12.55;6.28;;;5.50;84.80;;;;;;5112049;28;20051;-82
2022/11/20 11:47:42;;;;;;;11.20;6.20;;;5.50;85.40;;;;;;5091095;28;20130;-82
2022/11/20 11:50:11;;;;;;;13.02;6.05;;;5.60;83.40;;;;;;5094939;28;20502;-82
2022/11/20 11:52:54;;;;;;;13.25;5.65;;;5.70;83.50;;;;;;5110617;28;20100;-81
2022/11/20 11:55:41;;;;;;;13.15;6.55;;;5.90;83.40;;;;;;5111107;28;20039;-82
2022/11/20 11:58:11;;;;;;;20.08;6.70;;;6.10;82.40;;;;;;5090798;28;20138;-82
2022/11/20 12:00:41;;;;;;;11.57;5.93;;;6.60;82.80;;;;;;5071420;28;20130;-82
2022/11/20 12:03:24;;;;;;;13.43;5.97;;;7.10;81.50;;;;;;5113539;27;20036;-82
2022/11/20 12:06:01;;;;;;;12.48;6.90;;;8.60;81.90;;;;;;5069784;28;20132;-82
2022/11/20 12:08:39;;;;;;;13.43;6.53;;;9.90;73.50;;;;;;5096571;28;20039;-82
2022/11/20 12:11:11;;;;;;;12.30;6.93;;;10.10;67.80;;;;;;5091002;28;20036;-82
2022/11/20 12:13:44;;;;;;;11.05;6.47;;;10.30;67.50;;;;;;5107517;28;20040;-81
2022/11/20 12:16:14;;;;;;;11.43;6.65;;;10.60;66.40;;;;;;5090701;28;20044;-82
2022/11/20 12:18:41;;;;;;;11.00;6.57;;;11.00;67.70;;;;;;5105087;28;20078;-82
2022/11/20 12:21:37;;;;;;;12.07;6.90;;;11.50;66.90;;;;;;5089902;28;20036;-82
2022/11/20 12:24:20;;;;;;;13.52;7.75;;;11.80;63.90;;;;;;5096396;28;20051;-82
2022/11/20 12:27:08;;;;;;;10.95;9.10;;;12.20;64.20;;;;;;5114643;27;20456;-82
2022/11/20 12:29:46;;;;;;;11.48;7.28;;;12.40;59.70;;;;;;5070039;28;20044;-82
2022/11/20 12:32:28;;;;;;;12.10;7.13;;;12.00;60.40;;;;;;5094032;28;20052;-82
2022/11/20 12:35:08;;;;;;;12.00;10.13;;;11.50;60.60;;;;;;5094492;28;20039;-82
2022/11/20 12:37:51;;;;;;;12.93;7.82;;;11.20;59.30;;;;;;5075056;28;20040;-82
2022/11/20 12:40:41;;;;;;;12.90;7.18;;;10.70;60.10;;;;;;5074156;28;20477;-82
2022/11/20 12:46:23;;;;;;;12.48;7.72;;;11.40;60.90;;;;;;5110706;28;20482;-82
2022/11/20 12:49:15;;;;;;;13.20;7.15;;;11.30;61.00;;;;;;5090916;28;20040;-82
2022/11/20 12:51:55;;;;;;;11.97;6.77;;;11.00;61.20;;;;;;5093769;28;20071;-82
2022/11/20 12:54:57;;;;;;;11.52;7.45;;;10.70;61.70;;;;;;5110688;28;20035;-82
2022/11/20 12:57:48;;;;;;;13.48;7.53;;;10.40;61.30;;;;;;5068538;28;20047;-82
2022/11/20 13:00:20;;;;;;;12.05;7.28;;;10.00;62.60;;;;;;5091474;28;20520;-82
2022/11/20 13:03:04;;;;;;;12.52;7.25;;;9.50;63.30;;;;;;5103839;28;20039;-82